sensor_id;sensor_type;location;lat;lon;timestamp;P1;durP1;ratioP1;P2;durP2;ratioP2
14847;SDS011;7516;43.570;1.448;2022-07-29T00:01:07;2.10;;;1.30;;
14847;SDS011;7516;43.570;1.448;2022-07-29T00:03:35;1.83;;;1.45;;
14847;SDS011;7516;43.570;1.448;2022-07-29T00:06:02;2.83;;;1.50;;
14847;SDS011;7516;43.570;1.448;2022-07-29T00:08:30;2.70;;;1.20;;
14847;SDS011;7516;43.570;1.448;2022-07-29T00:10:57;2.30;;;1.20;;
14847;SDS011;7516;43.570;1.448;2022-07-29T00:13:25;2.13;;;1.50;;
14847;SDS011;7516;43.570;1.448;2022-07-29T00:15:52;2.33;;;1.50;;
14847;SDS011;7516;43.570;1.448;2022-07-29T00:18:21;2.70;;;1.48;;
14847;SDS011;7516;43.570;1.448;2022-07-29T00:20:49;1.95;;;1.50;;
14847;SDS011;7516;43.570;1.448;2022-07-29T00:23:16;1.58;;;1.45;;
14847;SDS011;7516;43.570;1.448;2022-07-29T00:25:44;2.03;;;1.27;;
14847;SDS011;7516;43.570;1.448;2022-07-29T00:28:11;3.47;;;1.45;;
14847;SDS011;7516;43.570;1.448;2022-07-29T00:30:39;2.75;;;1.40;;
14847;SDS011;7516;43.570;1.448;2022-07-29T00:33:08;2.30;;;1.30;;
14847;SDS011;7516;43.570;1.448;2022-07-29T00:35:37;2.83;;;1.30;;
14847;SDS011;7516;43.570;1.448;2022-07-29T00:38:09;2.03;;;1.50;;
14847;SDS011;7516;43.570;1.448;2022-07-29T00:40:37;2.17;;;1.35;;
14847;SDS011;7516;43.570;1.448;2022-07-29T00:43:04;1.95;;;1.25;;
14847;SDS011;7516;43.570;1.448;2022-07-29T00:45:32;2.88;;;1.40;;
14847;SDS011;7516;43.570;1.448;2022-07-29T00:48:00;3.65;;;2.15;;
14847;SDS011;7516;43.570;1.448;2022-07-29T00:50:28;1.95;;;1.20;;
14847;SDS011;7516;43.570;1.448;2022-07-29T00:52:57;3.28;;;1.30;;
14847;SDS011;7516;43.570;1.448;2022-07-29T00:55:26;3.25;;;1.20;;
14847;SDS011;7516;43.570;1.448;2022-07-29T00:57:55;2.03;;;1.45;;
14847;SDS011;7516;43.570;1.448;2022-07-29T01:00:23;3.22;;;1.33;;
14847;SDS011;7516;43.570;1.448;2022-07-29T01:02:52;3.67;;;1.58;;
14847;SDS011;7516;43.570;1.448;2022-07-29T01:05:20;1.77;;;1.05;;
14847;SDS011;7516;43.570;1.448;2022-07-29T01:07:51;1.98;;;1.25;;
14847;SDS011;7516;43.570;1.448;2022-07-29T01:10:20;2.38;;;1.30;;
14847;SDS011;7516;43.570;1.448;2022-07-29T01:12:49;1.80;;;1.60;;
14847;SDS011;7516;43.570;1.448;2022-07-29T01:15:19;2.83;;;1.30;;
14847;SDS011;7516;43.570;1.448;2022-07-29T01:17:49;2.28;;;1.20;;
14847;SDS011;7516;43.570;1.448;2022-07-29T01:20:26;2.92;;;1.40;;
14847;SDS011;7516;43.570;1.448;2022-07-29T01:23:04;2.88;;;1.50;;
14847;SDS011;7516;43.570;1.448;2022-07-29T01:28:43;1.70;;;1.33;;
14847;SDS011;7516;43.570;1.448;2022-07-29T01:31:19;4.68;;;1.30;;
14847;SDS011;7516;43.570;1.448;2022-07-29T01:33:58;1.83;;;1.15;;
14847;SDS011;7516;43.570;1.448;2022-07-29T01:36:30;2.65;;;1.60;;
14847;SDS011;7516;43.570;1.448;2022-07-29T01:39:03;2.15;;;1.08;;
14847;SDS011;7516;43.570;1.448;2022-07-29T01:41:35;2.72;;;1.33;;
14847;SDS011;7516;43.570;1.448;2022-07-29T01:44:12;2.42;;;1.30;;
14847;SDS011;7516;43.570;1.448;2022-07-29T01:46:46;1.77;;;1.40;;
14847;SDS011;7516;43.570;1.448;2022-07-29T01:49:20;2.95;;;1.30;;
14847;SDS011;7516;43.570;1.448;2022-07-29T01:51:53;2.28;;;1.23;;
14847;SDS011;7516;43.570;1.448;2022-07-29T01:54:25;2.22;;;1.27;;
14847;SDS011;7516;43.570;1.448;2022-07-29T01:56:56;1.58;;;1.10;;
14847;SDS011;7516;43.570;1.448;2022-07-29T01:59:27;2.92;;;1.30;;
14847;SDS011;7516;43.570;1.448;2022-07-29T02:01:57;2.38;;;1.20;;
14847;SDS011;7516;43.570;1.448;2022-07-29T02:04:26;2.10;;;1.30;;
14847;SDS011;7516;43.570;1.448;2022-07-29T02:06:57;1.83;;;1.15;;
14847;SDS011;7516;43.570;1.448;2022-07-29T02:09:27;1.70;;;1.35;;
14847;SDS011;7516;43.570;1.448;2022-07-29T02:11:56;1.92;;;1.02;;
14847;SDS011;7516;43.570;1.448;2022-07-29T02:14:28;5.35;;;1.67;;
14847;SDS011;7516;43.570;1.448;2022-07-29T02:16:59;1.50;;;1.13;;
14847;SDS011;7516;43.570;1.448;2022-07-29T02:19:28;1.85;;;1.20;;
14847;SDS011;7516;43.570;1.448;2022-07-29T02:21:58;2.35;;;1.20;;
14847;SDS011;7516;43.570;1.448;2022-07-29T02:24:26;2.25;;;1.20;;
14847;SDS011;7516;43.570;1.448;2022-07-29T02:26:56;3.88;;;1.50;;
14847;SDS011;7516;43.570;1.448;2022-07-29T02:29:28;2.55;;;1.20;;
14847;SDS011;7516;43.570;1.448;2022-07-29T02:31:58;2.40;;;1.10;;
14847;SDS011;7516;43.570;1.448;2022-07-29T02:34:28;2.05;;;1.20;;
14847;SDS011;7516;43.570;1.448;2022-07-29T02:36:57;2.38;;;1.15;;
14847;SDS011;7516;43.570;1.448;2022-07-29T02:39:26;1.88;;;1.33;;
14847;SDS011;7516;43.570;1.448;2022-07-29T02:41:57;2.78;;;1.30;;
14847;SDS011;7516;43.570;1.448;2022-07-29T02:44:31;1.75;;;1.23;;
14847;SDS011;7516;43.570;1.448;2022-07-29T02:47:02;2.47;;;1.08;;
14847;SDS011;7516;43.570;1.448;2022-07-29T02:49:37;2.38;;;1.20;;
14847;SDS011;7516;43.570;1.448;2022-07-29T02:52:10;3.20;;;1.27;;
14847;SDS011;7516;43.570;1.448;2022-07-29T02:54:45;3.17;;;1.40;;
14847;SDS011;7516;43.570;1.448;2022-07-29T02:57:19;1.25;;;1.15;;
14847;SDS011;7516;43.570;1.448;2022-07-29T02:59:51;2.08;;;1.00;;
14847;SDS011;7516;43.570;1.448;2022-07-29T03:02:23;2.65;;;1.10;;
14847;SDS011;7516;43.570;1.448;2022-07-29T03:04:54;1.65;;;1.00;;
14847;SDS011;7516;43.570;1.448;2022-07-29T03:07:24;1.83;;;1.27;;
14847;SDS011;7516;43.570;1.448;2022-07-29T03:09:51;2.05;;;1.10;;
14847;SDS011;7516;43.570;1.448;2022-07-29T03:12:20;2.45;;;1.15;;
14847;SDS011;7516;43.570;1.448;2022-07-29T03:14:48;4.10;;;1.20;;
14847;SDS011;7516;43.570;1.448;2022-07-29T03:17:18;2.88;;;1.30;;
14847;SDS011;7516;43.570;1.448;2022-07-29T03:19:45;2.92;;;1.25;;
14847;SDS011;7516;43.570;1.448;2022-07-29T03:22:13;4.32;;;1.30;;
14847;SDS011;7516;43.570;1.448;2022-07-29T03:24:41;2.58;;;1.15;;
14847;SDS011;7516;43.570;1.448;2022-07-29T03:27:09;2.47;;;1.30;;
14847;SDS011;7516;43.570;1.448;2022-07-29T03:29:36;2.30;;;1.30;;
14847;SDS011;7516;43.570;1.448;2022-07-29T03:32:05;2.83;;;1.10;;
14847;SDS011;7516;43.570;1.448;2022-07-29T03:34:33;1.98;;;1.20;;
14847;SDS011;7516;43.570;1.448;2022-07-29T03:37:01;2.20;;;1.20;;
14847;SDS011;7516;43.570;1.448;2022-07-29T03:39:29;4.00;;;1.52;;
14847;SDS011;7516;43.570;1.448;2022-07-29T03:42:00;2.53;;;1.00;;
14847;SDS011;7516;43.570;1.448;2022-07-29T03:44:30;3.42;;;1.10;;
14847;SDS011;7516;43.570;1.448;2022-07-29T03:46:59;1.73;;;1.15;;
14847;SDS011;7516;43.570;1.448;2022-07-29T03:49:31;2.13;;;1.20;;
14847;SDS011;7516;43.570;1.448;2022-07-29T03:52:02;1.70;;;1.08;;
14847;SDS011;7516;43.570;1.448;2022-07-29T03:54:31;2.05;;;1.50;;
14847;SDS011;7516;43.570;1.448;2022-07-29T03:56:59;2.45;;;1.30;;
14847;SDS011;7516;43.570;1.448;2022-07-29T03:59:27;3.08;;;1.10;;
14847;SDS011;7516;43.570;1.448;2022-07-29T04:01:56;3.22;;;1.30;;
14847;SDS011;7516;43.570;1.448;2022-07-29T04:04:25;2.25;;;1.17;;
14847;SDS011;7516;43.570;1.448;2022-07-29T04:06:54;1.00;;;0.90;;
14847;SDS011;7516;43.570;1.448;2022-07-29T04:09:21;3.30;;;1.20;;
14847;SDS011;7516;43.570;1.448;2022-07-29T04:11:49;1.40;;;1.20;;
14847;SDS011;7516;43.570;1.448;2022-07-29T04:14:17;2.15;;;1.25;;
14847;SDS011;7516;43.570;1.448;2022-07-29T04:16:45;3.20;;;1.30;;
14847;SDS011;7516;43.570;1.448;2022-07-29T04:19:13;2.30;;;1.20;;
14847;SDS011;7516;43.570;1.448;2022-07-29T04:21:40;2.20;;;1.27;;
14847;SDS011;7516;43.570;1.448;2022-07-29T04:24:11;2.88;;;1.10;;
14847;SDS011;7516;43.570;1.448;2022-07-29T04:26:39;2.25;;;1.52;;
14847;SDS011;7516;43.570;1.448;2022-07-29T04:29:06;1.20;;;0.90;;
14847;SDS011;7516;43.570;1.448;2022-07-29T04:31:34;1.65;;;1.20;;
14847;SDS011;7516;43.570;1.448;2022-07-29T04:34:01;1.60;;;1.27;;
14847;SDS011;7516;43.570;1.448;2022-07-29T04:36:29;2.08;;;1.27;;
14847;SDS011;7516;43.570;1.448;2022-07-29T04:38:56;1.60;;;1.30;;
14847;SDS011;7516;43.570;1.448;2022-07-29T04:41:25;3.28;;;1.30;;
14847;SDS011;7516;43.570;1.448;2022-07-29T04:43:53;1.80;;;1.20;;
14847;SDS011;7516;43.570;1.448;2022-07-29T04:46:20;2.53;;;1.30;;
14847;SDS011;7516;43.570;1.448;2022-07-29T04:48:48;2.70;;;1.15;;
14847;SDS011;7516;43.570;1.448;2022-07-29T04:51:15;2.83;;;1.15;;
14847;SDS011;7516;43.570;1.448;2022-07-29T04:53:43;1.83;;;1.02;;
14847;SDS011;7516;43.570;1.448;2022-07-29T04:56:10;2.33;;;1.20;;
14847;SDS011;7516;43.570;1.448;2022-07-29T04:58:39;3.15;;;1.42;;
14847;SDS011;7516;43.570;1.448;2022-07-29T05:01:07;2.15;;;1.27;;
14847;SDS011;7516;43.570;1.448;2022-07-29T05:03:34;2.83;;;1.10;;
14847;SDS011;7516;43.570;1.448;2022-07-29T05:06:02;1.73;;;1.10;;
14847;SDS011;7516;43.570;1.448;2022-07-29T05:08:29;2.60;;;1.10;;
14847;SDS011;7516;43.570;1.448;2022-07-29T05:10:57;1.50;;;1.08;;
14847;SDS011;7516;43.570;1.448;2022-07-29T05:13:24;2.65;;;1.27;;
14847;SDS011;7516;43.570;1.448;2022-07-29T05:15:53;2.65;;;1.23;;
14847;SDS011;7516;43.570;1.448;2022-07-29T05:18:23;1.73;;;1.15;;
14847;SDS011;7516;43.570;1.448;2022-07-29T05:20:50;2.25;;;1.10;;
14847;SDS011;7516;43.570;1.448;2022-07-29T05:23:18;1.70;;;1.20;;
14847;SDS011;7516;43.570;1.448;2022-07-29T05:25:45;2.13;;;1.10;;
14847;SDS011;7516;43.570;1.448;2022-07-29T05:28:13;2.60;;;1.20;;
14847;SDS011;7516;43.570;1.448;2022-07-29T05:30:40;2.53;;;1.60;;
14847;SDS011;7516;43.570;1.448;2022-07-29T05:33:10;2.42;;;1.10;;
14847;SDS011;7516;43.570;1.448;2022-07-29T05:35:38;3.03;;;1.10;;
14847;SDS011;7516;43.570;1.448;2022-07-29T05:38:05;4.80;;;1.52;;
14847;SDS011;7516;43.570;1.448;2022-07-29T05:40:33;2.80;;;1.40;;
14847;SDS011;7516;43.570;1.448;2022-07-29T05:43:00;3.17;;;1.15;;
14847;SDS011;7516;43.570;1.448;2022-07-29T05:45:28;2.30;;;1.30;;
14847;SDS011;7516;43.570;1.448;2022-07-29T05:47:55;2.13;;;1.20;;
14847;SDS011;7516;43.570;1.448;2022-07-29T05:50:24;2.67;;;1.27;;
14847;SDS011;7516;43.570;1.448;2022-07-29T05:52:52;2.35;;;1.23;;
14847;SDS011;7516;43.570;1.448;2022-07-29T05:55:19;1.52;;;1.20;;
14847;SDS011;7516;43.570;1.448;2022-07-29T05:57:46;1.73;;;1.05;;
14847;SDS011;7516;43.570;1.448;2022-07-29T06:00:14;1.55;;;1.10;;
14847;SDS011;7516;43.570;1.448;2022-07-29T06:02:42;2.38;;;1.10;;
14847;SDS011;7516;43.570;1.448;2022-07-29T06:05:10;2.00;;;1.00;;
14847;SDS011;7516;43.570;1.448;2022-07-29T06:07:39;1.67;;;1.10;;
14847;SDS011;7516;43.570;1.448;2022-07-29T06:10:06;2.45;;;1.30;;
14847;SDS011;7516;43.570;1.448;2022-07-29T06:12:34;1.13;;;1.00;;
14847;SDS011;7516;43.570;1.448;2022-07-29T06:15:02;1.58;;;1.00;;
14847;SDS011;7516;43.570;1.448;2022-07-29T06:17:31;3.38;;;1.20;;
14847;SDS011;7516;43.570;1.448;2022-07-29T06:19:59;1.88;;;1.10;;
14847;SDS011;7516;43.570;1.448;2022-07-29T06:22:26;2.40;;;1.30;;
14847;SDS011;7516;43.570;1.448;2022-07-29T06:24:55;2.42;;;1.50;;
14847;SDS011;7516;43.570;1.448;2022-07-29T06:27:23;4.05;;;1.20;;
14847;SDS011;7516;43.570;1.448;2022-07-29T06:29:50;3.92;;;1.30;;
14847;SDS011;7516;43.570;1.448;2022-07-29T06:32:18;2.25;;;1.30;;
14847;SDS011;7516;43.570;1.448;2022-07-29T06:34:46;1.90;;;1.27;;
14847;SDS011;7516;43.570;1.448;2022-07-29T06:37:14;2.45;;;1.17;;
14847;SDS011;7516;43.570;1.448;2022-07-29T06:39:42;1.38;;;1.23;;
14847;SDS011;7516;43.570;1.448;2022-07-29T06:42:11;3.05;;;1.33;;
14847;SDS011;7516;43.570;1.448;2022-07-29T06:44:39;2.38;;;1.20;;
14847;SDS011;7516;43.570;1.448;2022-07-29T06:47:06;2.63;;;1.15;;
14847;SDS011;7516;43.570;1.448;2022-07-29T06:49:34;4.03;;;1.27;;
14847;SDS011;7516;43.570;1.448;2022-07-29T06:52:02;2.13;;;1.20;;
14847;SDS011;7516;43.570;1.448;2022-07-29T06:54:29;2.10;;;1.30;;
14847;SDS011;7516;43.570;1.448;2022-07-29T06:56:57;2.85;;;1.38;;
14847;SDS011;7516;43.570;1.448;2022-07-29T06:59:26;1.80;;;1.10;;
14847;SDS011;7516;43.570;1.448;2022-07-29T07:01:54;5.35;;;1.30;;
14847;SDS011;7516;43.570;1.448;2022-07-29T07:04:21;1.60;;;1.20;;
14847;SDS011;7516;43.570;1.448;2022-07-29T07:06:49;2.58;;;1.40;;
14847;SDS011;7516;43.570;1.448;2022-07-29T07:09:16;2.25;;;1.48;;
14847;SDS011;7516;43.570;1.448;2022-07-29T07:11:44;3.63;;;1.30;;
14847;SDS011;7516;43.570;1.448;2022-07-29T07:14:11;2.92;;;1.27;;
14847;SDS011;7516;43.570;1.448;2022-07-29T07:16:40;2.72;;;1.38;;
14847;SDS011;7516;43.570;1.448;2022-07-29T07:19:08;2.45;;;1.50;;
14847;SDS011;7516;43.570;1.448;2022-07-29T07:21:35;3.10;;;1.55;;
14847;SDS011;7516;43.570;1.448;2022-07-29T07:24:03;2.00;;;1.38;;
14847;SDS011;7516;43.570;1.448;2022-07-29T07:26:31;1.52;;;1.17;;
14847;SDS011;7516;43.570;1.448;2022-07-29T07:28:58;1.92;;;1.20;;
14847;SDS011;7516;43.570;1.448;2022-07-29T07:31:26;4.53;;;1.50;;
14847;SDS011;7516;43.570;1.448;2022-07-29T07:33:55;2.45;;;1.50;;
14847;SDS011;7516;43.570;1.448;2022-07-29T07:36:23;1.95;;;1.27;;
14847;SDS011;7516;43.570;1.448;2022-07-29T07:38:50;1.50;;;1.20;;
14847;SDS011;7516;43.570;1.448;2022-07-29T07:41:18;1.45;;;1.20;;
14847;SDS011;7516;43.570;1.448;2022-07-29T07:43:46;2.45;;;1.23;;
14847;SDS011;7516;43.570;1.448;2022-07-29T07:46:13;2.85;;;1.30;;
14847;SDS011;7516;43.570;1.448;2022-07-29T07:48:41;3.72;;;1.60;;
14847;SDS011;7516;43.570;1.448;2022-07-29T07:51:10;3.17;;;1.20;;
14847;SDS011;7516;43.570;1.448;2022-07-29T07:53:38;1.27;;;1.08;;
14847;SDS011;7516;43.570;1.448;2022-07-29T07:56:05;1.50;;;1.20;;
14847;SDS011;7516;43.570;1.448;2022-07-29T07:58:33;3.25;;;1.45;;
14847;SDS011;7516;43.570;1.448;2022-07-29T08:01:01;2.30;;;1.27;;
14847;SDS011;7516;43.570;1.448;2022-07-29T08:03:29;1.98;;;1.20;;
14847;SDS011;7516;43.570;1.448;2022-07-29T08:05:56;3.22;;;1.30;;
14847;SDS011;7516;43.570;1.448;2022-07-29T08:08:25;2.53;;;1.30;;
14847;SDS011;7516;43.570;1.448;2022-07-29T08:10:52;1.58;;;1.10;;
14847;SDS011;7516;43.570;1.448;2022-07-29T08:13:21;3.35;;;1.40;;
14847;SDS011;7516;43.570;1.448;2022-07-29T08:15:52;1.45;;;1.15;;
14847;SDS011;7516;43.570;1.448;2022-07-29T08:18:24;2.22;;;1.42;;
14847;SDS011;7516;43.570;1.448;2022-07-29T08:20:52;2.67;;;1.40;;
14847;SDS011;7516;43.570;1.448;2022-07-29T08:23:19;2.58;;;1.48;;
14847;SDS011;7516;43.570;1.448;2022-07-29T08:25:49;1.85;;;1.58;;
14847;SDS011;7516;43.570;1.448;2022-07-29T08:28:17;1.90;;;1.50;;
14847;SDS011;7516;43.570;1.448;2022-07-29T08:30:44;2.60;;;1.50;;
14847;SDS011;7516;43.570;1.448;2022-07-29T08:33:12;2.75;;;1.20;;
14847;SDS011;7516;43.570;1.448;2022-07-29T08:35:39;3.30;;;1.90;;
14847;SDS011;7516;43.570;1.448;2022-07-29T08:38:07;4.63;;;1.75;;
14847;SDS011;7516;43.570;1.448;2022-07-29T08:40:34;4.82;;;1.80;;
14847;SDS011;7516;43.570;1.448;2022-07-29T08:43:07;4.68;;;1.70;;
14847;SDS011;7516;43.570;1.448;2022-07-29T08:45:41;4.05;;;2.20;;
14847;SDS011;7516;43.570;1.448;2022-07-29T08:48:11;3.05;;;1.90;;
14847;SDS011;7516;43.570;1.448;2022-07-29T08:50:39;2.25;;;1.70;;
14847;SDS011;7516;43.570;1.448;2022-07-29T08:53:08;3.25;;;1.85;;
14847;SDS011;7516;43.570;1.448;2022-07-29T08:55:38;2.65;;;1.88;;
14847;SDS011;7516;43.570;1.448;2022-07-29T08:58:08;3.42;;;1.80;;
14847;SDS011;7516;43.570;1.448;2022-07-29T09:00:37;3.58;;;1.92;;
14847;SDS011;7516;43.570;1.448;2022-07-29T09:03:09;3.65;;;2.00;;
14847;SDS011;7516;43.570;1.448;2022-07-29T09:05:41;4.15;;;1.98;;
14847;SDS011;7516;43.570;1.448;2022-07-29T09:08:09;3.10;;;1.73;;
14847;SDS011;7516;43.570;1.448;2022-07-29T09:10:37;3.50;;;2.03;;
14847;SDS011;7516;43.570;1.448;2022-07-29T09:13:05;4.72;;;2.20;;
14847;SDS011;7516;43.570;1.448;2022-07-29T09:15:34;3.55;;;1.80;;
14847;SDS011;7516;43.570;1.448;2022-07-29T09:18:02;3.80;;;1.92;;
14847;SDS011;7516;43.570;1.448;2022-07-29T09:20:29;3.38;;;2.17;;
14847;SDS011;7516;43.570;1.448;2022-07-29T09:23:11;3.35;;;1.90;;
14847;SDS011;7516;43.570;1.448;2022-07-29T09:25:39;3.22;;;2.03;;
14847;SDS011;7516;43.570;1.448;2022-07-29T09:28:08;4.70;;;1.90;;
14847;SDS011;7516;43.570;1.448;2022-07-29T09:30:38;4.18;;;1.92;;
14847;SDS011;7516;43.570;1.448;2022-07-29T09:33:17;5.07;;;1.92;;
14847;SDS011;7516;43.570;1.448;2022-07-29T09:35:45;2.83;;;2.05;;
14847;SDS011;7516;43.570;1.448;2022-07-29T09:38:12;3.05;;;1.80;;
14847;SDS011;7516;43.570;1.448;2022-07-29T09:40:40;8.35;;;2.30;;
14847;SDS011;7516;43.570;1.448;2022-07-29T09:43:11;5.07;;;2.22;;
14847;SDS011;7516;43.570;1.448;2022-07-29T09:45:40;4.05;;;2.28;;
14847;SDS011;7516;43.570;1.448;2022-07-29T09:48:15;6.72;;;2.80;;
14847;SDS011;7516;43.570;1.448;2022-07-29T09:50:44;4.50;;;2.45;;
14847;SDS011;7516;43.570;1.448;2022-07-29T09:53:24;4.72;;;2.40;;
14847;SDS011;7516;43.570;1.448;2022-07-29T09:55:57;6.53;;;3.00;;
14847;SDS011;7516;43.570;1.448;2022-07-29T09:58:25;6.22;;;2.90;;
14847;SDS011;7516;43.570;1.448;2022-07-29T10:00:55;6.95;;;3.78;;
14847;SDS011;7516;43.570;1.448;2022-07-29T10:03:23;6.65;;;3.08;;
14847;SDS011;7516;43.570;1.448;2022-07-29T10:06:04;7.32;;;3.40;;
14847;SDS011;7516;43.570;1.448;2022-07-29T10:08:32;5.15;;;3.20;;
14847;SDS011;7516;43.570;1.448;2022-07-29T10:11:08;7.03;;;3.03;;
14847;SDS011;7516;43.570;1.448;2022-07-29T10:13:36;4.22;;;2.60;;
14847;SDS011;7516;43.570;1.448;2022-07-29T10:16:07;5.75;;;3.05;;
14847;SDS011;7516;43.570;1.448;2022-07-29T10:18:34;4.40;;;3.05;;
14847;SDS011;7516;43.570;1.448;2022-07-29T10:21:03;8.00;;;2.85;;
14847;SDS011;7516;43.570;1.448;2022-07-29T10:23:32;4.85;;;3.38;;
14847;SDS011;7516;43.570;1.448;2022-07-29T10:26:01;7.85;;;3.47;;
14847;SDS011;7516;43.570;1.448;2022-07-29T10:28:29;6.25;;;3.60;;
14847;SDS011;7516;43.570;1.448;2022-07-29T10:30:59;4.55;;;3.38;;
14847;SDS011;7516;43.570;1.448;2022-07-29T10:33:35;6.43;;;2.78;;
14847;SDS011;7516;43.570;1.448;2022-07-29T10:36:15;4.38;;;2.70;;
14847;SDS011;7516;43.570;1.448;2022-07-29T10:39:00;3.63;;;2.42;;
14847;SDS011;7516;43.570;1.448;2022-07-29T10:41:43;3.13;;;2.38;;
14847;SDS011;7516;43.570;1.448;2022-07-29T10:44:22;3.55;;;2.40;;
14847;SDS011;7516;43.570;1.448;2022-07-29T10:46:52;4.78;;;2.50;;
14847;SDS011;7516;43.570;1.448;2022-07-29T10:49:22;3.60;;;2.22;;
14847;SDS011;7516;43.570;1.448;2022-07-29T10:51:52;2.75;;;2.47;;
14847;SDS011;7516;43.570;1.448;2022-07-29T10:57:19;4.38;;;2.55;;
14847;SDS011;7516;43.570;1.448;2022-07-29T10:59:50;3.20;;;2.20;;
14847;SDS011;7516;43.570;1.448;2022-07-29T11:02:45;3.75;;;2.40;;
14847;SDS011;7516;43.570;1.448;2022-07-29T11:05:19;4.35;;;2.47;;
14847;SDS011;7516;43.570;1.448;2022-07-29T11:10:52;4.25;;;1.90;;
14847;SDS011;7516;43.570;1.448;2022-07-29T11:13:46;3.60;;;2.08;;
14847;SDS011;7516;43.570;1.448;2022-07-29T11:16:15;6.97;;;2.10;;
14847;SDS011;7516;43.570;1.448;2022-07-29T11:21:49;2.78;;;2.15;;
14847;SDS011;7516;43.570;1.448;2022-07-29T11:24:18;5.43;;;2.20;;
14847;SDS011;7516;43.570;1.448;2022-07-29T11:29:35;3.17;;;2.00;;
14847;SDS011;7516;43.570;1.448;2022-07-29T11:32:10;3.78;;;2.17;;
14847;SDS011;7516;43.570;1.448;2022-07-29T11:34:39;3.83;;;2.10;;
14847;SDS011;7516;43.570;1.448;2022-07-29T11:37:18;3.45;;;1.90;;
14847;SDS011;7516;43.570;1.448;2022-07-29T11:42:47;3.80;;;2.55;;
14847;SDS011;7516;43.570;1.448;2022-07-29T11:45:25;3.83;;;2.55;;
14847;SDS011;7516;43.570;1.448;2022-07-29T11:48:18;5.85;;;2.78;;
14847;SDS011;7516;43.570;1.448;2022-07-29T11:50:45;4.18;;;2.58;;
14847;SDS011;7516;43.570;1.448;2022-07-29T11:53:14;5.30;;;2.33;;
14847;SDS011;7516;43.570;1.448;2022-07-29T11:55:42;4.93;;;2.33;;
14847;SDS011;7516;43.570;1.448;2022-07-29T11:58:10;3.35;;;2.35;;
14847;SDS011;7516;43.570;1.448;2022-07-29T12:00:38;3.45;;;2.17;;
14847;SDS011;7516;43.570;1.448;2022-07-29T12:03:08;5.22;;;2.35;;
14847;SDS011;7516;43.570;1.448;2022-07-29T12:05:37;2.42;;;2.10;;
14847;SDS011;7516;43.570;1.448;2022-07-29T12:08:08;3.47;;;1.80;;
14847;SDS011;7516;43.570;1.448;2022-07-29T12:10:39;2.10;;;1.70;;
14847;SDS011;7516;43.570;1.448;2022-07-29T12:13:07;4.15;;;1.67;;
14847;SDS011;7516;43.570;1.448;2022-07-29T12:15:35;3.10;;;2.00;;
14847;SDS011;7516;43.570;1.448;2022-07-29T12:18:13;2.40;;;1.80;;
14847;SDS011;7516;43.570;1.448;2022-07-29T12:20:41;2.35;;;1.50;;
14847;SDS011;7516;43.570;1.448;2022-07-29T12:23:09;2.33;;;1.67;;
14847;SDS011;7516;43.570;1.448;2022-07-29T12:25:39;4.15;;;1.67;;
14847;SDS011;7516;43.570;1.448;2022-07-29T12:28:09;3.95;;;1.50;;
14847;SDS011;7516;43.570;1.448;2022-07-29T12:30:40;1.92;;;1.52;;
14847;SDS011;7516;43.570;1.448;2022-07-29T12:33:16;3.60;;;1.90;;
14847;SDS011;7516;43.570;1.448;2022-07-29T12:35:47;2.80;;;1.83;;
14847;SDS011;7516;43.570;1.448;2022-07-29T12:38:16;2.72;;;1.77;;
14847;SDS011;7516;43.570;1.448;2022-07-29T12:40:46;3.63;;;2.03;;
14847;SDS011;7516;43.570;1.448;2022-07-29T12:43:16;3.13;;;1.83;;
14847;SDS011;7516;43.570;1.448;2022-07-29T12:45:46;2.72;;;2.03;;
14847;SDS011;7516;43.570;1.448;2022-07-29T12:48:15;2.58;;;1.95;;
14847;SDS011;7516;43.570;1.448;2022-07-29T12:50:54;3.92;;;2.03;;
14847;SDS011;7516;43.570;1.448;2022-07-29T12:53:23;2.88;;;1.80;;
14847;SDS011;7516;43.570;1.448;2022-07-29T12:55:54;3.88;;;2.20;;
14847;SDS011;7516;43.570;1.448;2022-07-29T12:58:30;3.85;;;2.00;;
14847;SDS011;7516;43.570;1.448;2022-07-29T13:01:06;4.10;;;2.30;;
14847;SDS011;7516;43.570;1.448;2022-07-29T13:03:43;4.53;;;2.60;;
14847;SDS011;7516;43.570;1.448;2022-07-29T13:06:27;2.70;;;2.17;;
14847;SDS011;7516;43.570;1.448;2022-07-29T13:08:59;3.35;;;2.10;;
14847;SDS011;7516;43.570;1.448;2022-07-29T13:11:34;2.05;;;1.83;;
14847;SDS011;7516;43.570;1.448;2022-07-29T13:14:03;3.80;;;2.10;;
14847;SDS011;7516;43.570;1.448;2022-07-29T13:16:32;3.08;;;2.00;;
14847;SDS011;7516;43.570;1.448;2022-07-29T13:19:06;3.72;;;1.90;;
14847;SDS011;7516;43.570;1.448;2022-07-29T13:21:35;3.10;;;1.98;;
14847;SDS011;7516;43.570;1.448;2022-07-29T13:24:04;2.13;;;1.92;;
14847;SDS011;7516;43.570;1.448;2022-07-29T13:26:34;2.45;;;1.75;;
14847;SDS011;7516;43.570;1.448;2022-07-29T13:29:05;3.72;;;1.73;;
14847;SDS011;7516;43.570;1.448;2022-07-29T13:31:33;3.08;;;1.73;;
14847;SDS011;7516;43.570;1.448;2022-07-29T13:34:01;2.90;;;1.90;;
14847;SDS011;7516;43.570;1.448;2022-07-29T13:36:29;2.35;;;1.73;;
14847;SDS011;7516;43.570;1.448;2022-07-29T13:38:56;2.47;;;1.80;;
14847;SDS011;7516;43.570;1.448;2022-07-29T13:41:24;4.07;;;2.10;;
14847;SDS011;7516;43.570;1.448;2022-07-29T13:43:53;2.95;;;1.95;;
14847;SDS011;7516;43.570;1.448;2022-07-29T13:46:20;3.38;;;2.05;;
14847;SDS011;7516;43.570;1.448;2022-07-29T13:48:48;4.43;;;1.95;;
14847;SDS011;7516;43.570;1.448;2022-07-29T13:51:15;4.00;;;2.00;;
14847;SDS011;7516;43.570;1.448;2022-07-29T13:53:43;2.67;;;1.90;;
14847;SDS011;7516;43.570;1.448;2022-07-29T13:56:10;2.83;;;2.17;;
14847;SDS011;7516;43.570;1.448;2022-07-29T13:58:38;2.65;;;1.90;;
14847;SDS011;7516;43.570;1.448;2022-07-29T14:01:07;2.78;;;1.80;;
14847;SDS011;7516;43.570;1.448;2022-07-29T14:03:35;4.13;;;1.95;;
14847;SDS011;7516;43.570;1.448;2022-07-29T14:06:06;2.92;;;1.95;;
14847;SDS011;7516;43.570;1.448;2022-07-29T14:08:33;3.58;;;1.80;;
14847;SDS011;7516;43.570;1.448;2022-07-29T14:11:01;2.67;;;1.60;;
14847;SDS011;7516;43.570;1.448;2022-07-29T14:13:28;2.65;;;1.95;;
14847;SDS011;7516;43.570;1.448;2022-07-29T14:15:56;2.33;;;1.63;;
14847;SDS011;7516;43.570;1.448;2022-07-29T14:18:25;3.85;;;2.03;;
14847;SDS011;7516;43.570;1.448;2022-07-29T14:20:52;5.25;;;2.20;;
14847;SDS011;7516;43.570;1.448;2022-07-29T14:23:20;3.83;;;2.20;;
14847;SDS011;7516;43.570;1.448;2022-07-29T14:25:47;4.32;;;1.92;;
14847;SDS011;7516;43.570;1.448;2022-07-29T14:28:15;2.72;;;2.03;;
14847;SDS011;7516;43.570;1.448;2022-07-29T14:30:42;3.65;;;2.10;;
14847;SDS011;7516;43.570;1.448;2022-07-29T14:33:10;4.80;;;2.28;;
14847;SDS011;7516;43.570;1.448;2022-07-29T14:35:39;4.25;;;1.98;;
14847;SDS011;7516;43.570;1.448;2022-07-29T14:38:06;2.50;;;1.80;;
14847;SDS011;7516;43.570;1.448;2022-07-29T14:40:34;3.88;;;2.05;;
14847;SDS011;7516;43.570;1.448;2022-07-29T14:43:02;4.90;;;2.28;;
14847;SDS011;7516;43.570;1.448;2022-07-29T14:45:29;3.90;;;1.80;;
14847;SDS011;7516;43.570;1.448;2022-07-29T14:47:57;4.93;;;1.95;;
14847;SDS011;7516;43.570;1.448;2022-07-29T14:50:25;2.78;;;1.98;;
14847;SDS011;7516;43.570;1.448;2022-07-29T14:52:54;3.85;;;2.05;;
14847;SDS011;7516;43.570;1.448;2022-07-29T14:55:21;3.92;;;1.88;;
14847;SDS011;7516;43.570;1.448;2022-07-29T14:57:49;4.60;;;2.10;;
14847;SDS011;7516;43.570;1.448;2022-07-29T15:00:17;3.33;;;1.90;;
14847;SDS011;7516;43.570;1.448;2022-07-29T15:02:45;2.67;;;1.95;;
14847;SDS011;7516;43.570;1.448;2022-07-29T15:05:13;2.88;;;1.90;;
14847;SDS011;7516;43.570;1.448;2022-07-29T15:07:41;4.10;;;2.17;;
14847;SDS011;7516;43.570;1.448;2022-07-29T15:10:09;2.55;;;2.08;;
14847;SDS011;7516;43.570;1.448;2022-07-29T15:12:37;4.80;;;2.00;;
14847;SDS011;7516;43.570;1.448;2022-07-29T15:15:05;2.58;;;1.90;;
14847;SDS011;7516;43.570;1.448;2022-07-29T15:17:33;3.45;;;1.98;;
14847;SDS011;7516;43.570;1.448;2022-07-29T15:20:01;2.95;;;1.80;;
14847;SDS011;7516;43.570;1.448;2022-07-29T15:22:29;3.00;;;2.05;;
14847;SDS011;7516;43.570;1.448;2022-07-29T15:24:56;2.53;;;1.80;;
14847;SDS011;7516;43.570;1.448;2022-07-29T15:27:25;3.05;;;1.70;;
14847;SDS011;7516;43.570;1.448;2022-07-29T15:29:52;3.17;;;1.65;;
14847;SDS011;7516;43.570;1.448;2022-07-29T15:32:20;1.88;;;1.73;;